Time;durP1;ratioP1;P1;durP2;ratioP2;P2;SDS_P1;SDS_P2;PMS_P1;PMS_P2;Temp;Humidity;BMP_temperature;BMP_pressure;BME280_temperature;BME280_humidity;BME280_pressure;Samples;Min_cycle;Max_cycle;Signal;HPM_P1;HPM_P2
2021/12/03 00:01:42;;;;;;;18.17;8.80;;;14.30;83.50;;;;;;5204026;28;20042;-31
2021/12/03 00:04:13;;;;;;;16.77;8.83;;;14.30;83.50;;;;;;5205219;28;20141;-30
2021/12/03 00:06:44;;;;;;;12.60;9.13;;;14.30;83.40;;;;;;5205477;28;20124;-32
2021/12/03 00:09:15;;;;;;;22.53;11.60;;;14.30;83.40;;;;;;5205389;28;20046;-33
2021/12/03 00:11:46;;;;;;;19.30;12.87;;;14.20;83.20;;;;;;5204915;28;20037;-29
2021/12/03 00:14:17;;;;;;;22.67;12.53;;;14.30;83.20;;;;;;5205335;28;20061;-32
2021/12/03 00:16:48;;;;;;;17.73;14.20;;;14.30;83.10;;;;;;5204063;28;20073;-32
2021/12/03 00:19:19;;;;;;;23.43;15.97;;;14.20;83.00;;;;;;5204787;28;20783;-32
2021/12/03 00:21:50;;;;;;;24.43;15.93;;;14.30;83.00;;;;;;5205211;28;20137;-29
2021/12/03 00:24:21;;;;;;;13.60;7.97;;;14.30;83.00;;;;;;5204938;28;20112;-29
2021/12/03 00:26:51;;;;;;;10.83;7.23;;;14.20;83.00;;;;;;5205249;28;20128;-31
2021/12/03 00:29:22;;;;;;;10.97;6.73;;;14.20;83.00;;;;;;5205021;28;20501;-31
2021/12/03 00:31:53;;;;;;;13.80;9.60;;;14.20;83.00;;;;;;5199164;28;20042;-29
2021/12/03 00:34:26;;;;;;;11.40;7.30;;;14.20;83.10;;;;;;5197113;28;20049;-31
2021/12/03 00:36:57;;;;;;;11.45;8.50;;;14.20;83.10;;;;;;5204134;28;20045;-28
2021/12/03 00:39:29;;;;;;;10.90;6.23;;;14.20;83.00;;;;;;5204774;28;20547;-32
2021/12/03 00:42:02;;;;;;;8.23;5.97;;;14.20;83.00;;;;;;5202782;28;20039;-31
2021/12/03 00:44:33;;;;;;;8.83;5.90;;;14.20;83.00;;;;;;5203578;28;20457;-29
2021/12/03 00:47:04;;;;;;;7.77;5.40;;;14.20;82.90;;;;;;5206505;28;20428;-31
2021/12/03 00:49:35;;;;;;;10.17;7.73;;;14.20;82.80;;;;;;5206554;28;20490;-29
2021/12/03 00:52:07;;;;;;;13.10;10.60;;;14.20;82.80;;;;;;5187945;28;20091;-32
2021/12/03 00:54:38;;;;;;;8.33;6.23;;;14.20;82.70;;;;;;5205399;28;20046;-30
2021/12/03 00:57:09;;;;;;;6.43;4.63;;;14.20;82.70;;;;;;5206437;28;20104;-31
2021/12/03 00:59:40;;;;;;;8.03;5.73;;;14.20;82.70;;;;;;5205835;28;20044;-30
2021/12/03 01:02:11;;;;;;;7.23;4.77;;;14.20;82.80;;;;;;5205592;28;20042;-32
2021/12/03 01:04:42;;;;;;;7.63;4.53;;;14.20;83.00;;;;;;5206925;28;20045;-29
2021/12/03 01:07:14;;;;;;;8.13;5.27;;;14.20;82.90;;;;;;5206484;28;20128;-32
2021/12/03 01:09:45;;;;;;;7.03;4.73;;;14.20;82.90;;;;;;5205309;28;20407;-29
2021/12/03 01:12:16;;;;;;;5.07;4.23;;;14.20;82.80;;;;;;5204209;28;20034;-29
2021/12/03 01:14:47;;;;;;;6.43;5.37;;;14.10;82.70;;;;;;5205641;28;20044;-31
2021/12/03 01:17:19;;;;;;;7.60;6.90;;;14.20;82.70;;;;;;5205528;28;20046;-30
2021/12/03 01:19:50;;;;;;;28.67;23.42;;;14.20;82.60;;;;;;5205311;28;20124;-30
2021/12/03 01:22:21;;;;;;;18.60;12.00;;;14.20;82.60;;;;;;5206434;28;20120;-29
2021/12/03 01:24:52;;;;;;;11.43;7.63;;;14.10;82.50;;;;;;5205920;28;20092;-29
2021/12/03 01:27:23;;;;;;;10.37;6.83;;;14.10;82.40;;;;;;5206633;28;20077;-32
2021/12/03 01:29:55;;;;;;;9.43;6.80;;;14.20;82.40;;;;;;5205269;28;20051;-32
2021/12/03 01:32:26;;;;;;;7.23;5.10;;;14.10;82.30;;;;;;5206468;28;20501;-29
2021/12/03 01:34:57;;;;;;;7.83;5.00;;;14.10;82.30;;;;;;5206372;28;20041;-29
2021/12/03 01:37:28;;;;;;;8.93;6.47;;;14.10;82.40;;;;;;5206091;28;20058;-30
2021/12/03 01:39:59;;;;;;;8.37;6.23;;;14.10;82.30;;;;;;5205079;28;20053;-33
2021/12/03 01:42:30;;;;;;;8.37;5.63;;;14.10;82.30;;;;;;5204691;28;20095;-32
2021/12/03 01:45:01;;;;;;;5.83;3.90;;;14.10;82.20;;;;;;5206663;28;20047;-31
2021/12/03 01:47:32;;;;;;;6.47;4.60;;;14.10;82.70;;;;;;5206149;28;20049;-31
2021/12/03 01:50:03;;;;;;;6.00;4.77;;;14.10;82.10;;;;;;5205034;28;20045;-32
2021/12/03 01:52:34;;;;;;;5.90;4.77;;;14.10;82.00;;;;;;5205672;28;20124;-30
2021/12/03 01:55:10;;;;;;;6.60;4.43;;;14.10;82.00;;;;;;5228139;28;20143;-31
2021/12/03 01:57:41;;;;;;;7.17;5.03;;;14.10;81.80;;;;;;5211925;28;20060;-29
2021/12/03 02:00:38;;;;;;;5.90;4.43;;;14.10;82.40;;;;;;5227993;28;20139;-32
2021/12/03 02:03:10;;;;;;;7.33;5.47;;;14.10;81.80;;;;;;5167520;28;20496;-33
2021/12/03 02:05:42;;;;;;;5.97;4.57;;;14.10;81.70;;;;;;5150563;28;20054;-32
2021/12/03 02:08:13;;;;;;;6.00;4.37;;;14.10;81.60;;;;;;5167100;28;20239;-29
2021/12/03 02:10:44;;;;;;;7.00;4.90;;;14.10;81.60;;;;;;5150508;28;20528;-30
2021/12/03 02:13:15;;;;;;;7.43;6.10;;;14.10;81.70;;;;;;5150497;28;20054;-30
2021/12/03 02:15:46;;;;;;;7.63;5.90;;;14.00;81.70;;;;;;5150406;28;20056;-33
2021/12/03 02:18:17;;;;;;;8.20;5.60;;;14.10;81.70;;;;;;5166572;28;20046;-30
2021/12/03 02:20:49;;;;;;;7.20;4.80;;;14.00;81.70;;;;;;5149935;28;20068;-33
2021/12/03 02:23:20;;;;;;;16.97;15.37;;;14.00;81.50;;;;;;5150104;28;20121;-30
2021/12/03 02:25:52;;;;;;;8.87;7.07;;;14.00;81.40;;;;;;5141562;28;20087;-28
2021/12/03 02:28:25;;;;;;;6.43;4.90;;;14.00;81.30;;;;;;5130112;28;20059;-31
2021/12/03 02:30:56;;;;;;;6.00;4.27;;;14.00;81.30;;;;;;5146361;28;20162;-31
2021/12/03 02:33:27;;;;;;;11.03;8.27;;;14.00;81.20;;;;;;5145781;28;20513;-29
2021/12/03 02:35:59;;;;;;;10.70;8.07;;;14.00;81.10;;;;;;5129869;28;20047;-33
2021/12/03 02:38:29;;;;;;;6.63;4.93;;;14.00;81.00;;;;;;5130060;28;20054;-32
2021/12/03 02:41:01;;;;;;;6.80;5.73;;;14.00;81.00;;;;;;5202012;28;20471;-31
2021/12/03 02:43:32;;;;;;;7.30;5.67;;;14.00;81.10;;;;;;5207693;28;20140;-31
2021/12/03 02:46:03;;;;;;;7.00;5.17;;;14.00;81.10;;;;;;5208787;28;20049;-29
2021/12/03 02:48:36;;;;;;;11.47;8.93;;;14.00;80.70;;;;;;5207998;28;20092;-31
2021/12/03 02:51:07;;;;;;;7.18;5.03;;;14.10;80.50;;;;;;5209022;28;20505;-32
2021/12/03 02:53:38;;;;;;;5.87;4.03;;;14.00;80.20;;;;;;5190968;28;20061;-29
2021/12/03 02:56:09;;;;;;;6.50;4.30;;;14.00;79.90;;;;;;5207302;28;20411;-31
2021/12/03 02:58:40;;;;;;;6.07;4.83;;;14.00;79.90;;;;;;5208741;28;20049;-30
2021/12/03 03:01:11;;;;;;;5.60;4.80;;;14.10;79.70;;;;;;5191077;28;20041;-32
2021/12/03 03:03:42;;;;;;;7.20;5.03;;;14.10;79.50;;;;;;5208429;28;20049;-30
2021/12/03 03:06:13;;;;;;;6.87;5.20;;;14.10;79.40;;;;;;5207617;28;20120;-31
2021/12/03 03:08:45;;;;;;;5.90;4.50;;;14.10;79.30;;;;;;5208605;28;20041;-34
2021/12/03 03:11:21;;;;;;;7.53;5.20;;;14.10;79.30;;;;;;5207119;28;20047;-33
2021/12/03 03:13:52;;;;;;;4.70;4.00;;;14.10;79.40;;;;;;5207547;28;20045;-31
2021/12/03 03:16:23;;;;;;;6.97;4.67;;;14.10;79.30;;;;;;5207891;28;20713;-32
2021/12/03 03:18:54;;;;;;;5.07;4.20;;;14.10;79.30;;;;;;5208450;28;20124;-33
2021/12/03 03:21:25;;;;;;;6.97;5.40;;;14.10;79.20;;;;;;5208109;28;20398;-31
2021/12/03 03:23:56;;;;;;;6.07;4.93;;;14.20;79.40;;;;;;5208578;28;20052;-34
2021/12/03 03:26:27;;;;;;;5.10;4.37;;;14.20;79.50;;;;;;5206925;28;20124;-35
2021/12/03 03:28:58;;;;;;;5.27;4.40;;;14.20;79.40;;;;;;5190508;28;20128;-32
2021/12/03 03:31:29;;;;;;;5.60;4.20;;;14.20;79.20;;;;;;5174064;28;20049;-34
2021/12/03 03:34:00;;;;;;;6.53;4.50;;;14.20;79.10;;;;;;5208019;28;20531;-33
2021/12/03 03:36:42;;;;;;;5.77;4.50;;;14.10;78.80;;;;;;5206787;28;20046;-31
2021/12/03 03:39:13;;;;;;;7.30;4.80;;;14.10;78.80;;;;;;5208174;28;20048;-33
2021/12/03 03:41:44;;;;;;;7.43;5.30;;;14.10;78.80;;;;;;5207481;28;20124;-34
2021/12/03 03:44:16;;;;;;;7.07;5.23;;;14.10;78.80;;;;;;5207697;28;20140;-33
2021/12/03 03:46:49;;;;;;;7.20;5.50;;;14.10;78.80;;;;;;5206697;28;20176;-31
2021/12/03 03:49:20;;;;;;;7.27;4.90;;;14.10;78.90;;;;;;5208459;28;20102;-31
2021/12/03 03:51:52;;;;;;;7.23;5.80;;;14.10;78.90;;;;;;5206755;28;20037;-31
2021/12/03 03:54:22;;;;;;;5.13;4.50;;;14.10;78.90;;;;;;5206798;28;20401;-34
2021/12/03 03:56:53;;;;;;;4.60;3.70;;;14.10;78.90;;;;;;5208320;28;20124;-33
2021/12/03 03:59:24;;;;;;;6.37;5.40;;;14.20;78.90;;;;;;5207723;28;20045;-32
2021/12/03 04:01:56;;;;;;;5.10;4.60;;;14.10;78.90;;;;;;5207978;28;20167;-34
2021/12/03 04:04:26;;;;;;;4.90;4.03;;;14.20;79.40;;;;;;5208109;28;20435;-34
2021/12/03 04:06:57;;;;;;;5.03;4.00;;;14.20;79.90;;;;;;5208568;28;20128;-31
2021/12/03 04:09:28;;;;;;;4.77;3.37;;;14.20;79.80;;;;;;5207516;28;20124;-31
2021/12/03 04:11:59;;;;;;;4.57;3.63;;;14.20;79.60;;;;;;5208347;28;20389;-32
2021/12/03 04:14:30;;;;;;;5.07;3.67;;;14.20;79.40;;;;;;5206645;28;20041;-31
2021/12/03 04:17:02;;;;;;;6.77;3.87;;;14.20;79.40;;;;;;5207349;28;20038;-32
2021/12/03 04:19:33;;;;;;;5.07;3.47;;;14.20;79.30;;;;;;5206492;28;20090;-32
2021/12/03 04:22:05;;;;;;;4.20;2.87;;;14.20;79.20;;;;;;5207692;28;20518;-31
2021/12/03 04:24:35;;;;;;;4.27;2.60;;;14.20;79.10;;;;;;5207775;28;20045;-31
2021/12/03 04:27:07;;;;;;;2.90;2.20;;;14.20;79.00;;;;;;5207677;28;20140;-32
2021/12/03 04:29:37;;;;;;;3.30;2.33;;;14.20;78.80;;;;;;5206601;28;20124;-31
2021/12/03 04:32:08;;;;;;;5.07;3.13;;;14.20;78.80;;;;;;5206780;28;20057;-32
2021/12/03 04:34:40;;;;;;;5.93;3.40;;;14.20;78.60;;;;;;5190022;28;20057;-32
2021/12/03 04:37:11;;;;;;;4.30;2.73;;;14.20;78.70;;;;;;5206362;28;20045;-32
2021/12/03 04:39:41;;;;;;;4.77;3.40;;;14.20;78.80;;;;;;5207411;28;20042;-32
2021/12/03 04:42:12;;;;;;;4.43;3.00;;;14.20;78.90;;;;;;5207418;28;20474;-31
2021/12/03 04:44:43;;;;;;;5.33;2.90;;;14.20;79.30;;;;;;5207219;28;20140;-32
2021/12/03 04:47:15;;;;;;;5.60;3.30;;;14.20;78.60;;;;;;5206701;28;20049;-31
2021/12/03 04:49:46;;;;;;;5.83;3.67;;;14.20;78.50;;;;;;5207117;28;20042;-31
2021/12/03 04:52:17;;;;;;;6.47;4.33;;;14.20;78.20;;;;;;5205558;28;20045;-31
2021/12/03 04:54:47;;;;;;;6.87;4.73;;;14.20;77.90;;;;;;5207450;28;20059;-31
2021/12/03 04:57:18;;;;;;;6.90;4.30;;;14.20;77.70;;;;;;5206727;28;20153;-31
2021/12/03 04:59:49;;;;;;;5.70;4.23;;;14.20;77.60;;;;;;5188957;28;20474;-30
2021/12/03 05:02:22;;;;;;;7.80;5.10;;;14.20;77.40;;;;;;5207083;28;20107;-32
2021/12/03 05:04:55;;;;;;;12.20;8.33;;;14.20;77.30;;;;;;5206236;28;20047;-31
2021/12/03 05:07:30;;;;;;;8.63;6.77;;;14.20;77.20;;;;;;5207299;28;20546;-31
2021/12/03 05:10:01;;;;;;;8.13;4.93;;;14.30;77.40;;;;;;5206500;28;20115;-32
2021/12/03 05:12:32;;;;;;;21.07;12.40;;;14.30;77.50;;;;;;5207033;28;20077;-32
2021/12/03 05:15:04;;;;;;;19.90;12.53;;;14.30;77.40;;;;;;5206526;28;20108;-31
2021/12/03 05:17:35;;;;;;;9.70;5.63;;;14.20;77.10;;;;;;5206413;28;20045;-31
2021/12/03 05:20:06;;;;;;;5.03;2.87;;;14.20;77.10;;;;;;5206195;28;20372;-32
2021/12/03 05:22:37;;;;;;;6.70;4.10;;;14.20;76.90;;;;;;5206204;28;20052;-31
2021/12/03 05:25:09;;;;;;;8.80;4.30;;;14.20;76.80;;;;;;5205129;28;20492;-31
2021/12/03 05:27:40;;;;;;;5.23;3.43;;;14.20;76.60;;;;;;5206199;28;20108;-35
2021/12/03 05:30:11;;;;;;;8.50;4.40;;;14.20;76.50;;;;;;5208199;28;20527;-31
2021/12/03 05:32:42;;;;;;;8.60;5.30;;;14.30;76.60;;;;;;5209928;28;20522;-31
2021/12/03 05:35:13;;;;;;;7.93;5.00;;;14.30;76.70;;;;;;5209833;28;20124;-34
2021/12/03 05:37:44;;;;;;;8.90;5.97;;;14.30;76.90;;;;;;5209547;28;20474;-34
2021/12/03 05:40:15;;;;;;;11.13;7.60;;;14.30;77.10;;;;;;5210715;28;20136;-35
2021/12/03 05:42:46;;;;;;;12.20;7.93;;;14.30;77.10;;;;;;5209356;28;20125;-31
2021/12/03 05:45:20;;;;;;;10.07;6.80;;;14.30;76.90;;;;;;5210949;28;20041;-31
2021/12/03 05:47:51;;;;;;;8.40;4.87;;;14.30;77.00;;;;;;5210300;28;20069;-34
2021/12/03 05:50:23;;;;;;;7.77;5.37;;;14.30;76.90;;;;;;5209229;28;20046;-32
2021/12/03 05:52:54;;;;;;;8.87;5.90;;;14.30;76.80;;;;;;5211092;28;20045;-35
2021/12/03 05:55:25;;;;;;;9.83;6.23;;;14.40;77.40;;;;;;5210861;28;20067;-34
2021/12/03 05:57:57;;;;;;;9.63;7.07;;;14.30;76.80;;;;;;5210793;28;20431;-34
2021/12/03 06:00:33;;;;;;;8.80;6.10;;;14.40;77.00;;;;;;5192969;28;20130;-31
2021/12/03 06:03:04;;;;;;;6.17;4.03;;;14.40;77.40;;;;;;5210394;28;20076;-30
2021/12/03 06:05:36;;;;;;;8.63;6.77;;;14.40;77.60;;;;;;5210582;28;20487;-30
2021/12/03 06:08:07;;;;;;;5.20;3.10;;;14.40;77.10;;;;;;5209531;28;20049;-30
2021/12/03 06:10:38;;;;;;;5.90;2.73;;;14.50;76.60;;;;;;5210829;28;20103;-30
2021/12/03 06:13:09;;;;;;;6.60;3.73;;;14.60;76.80;;;;;;5210200;28;20073;-29
2021/12/03 06:15:39;;;;;;;6.00;3.60;;;14.70;76.80;;;;;;5210298;28;20521;-34
2021/12/03 06:18:10;;;;;;;4.57;2.63;;;14.90;76.40;;;;;;5210241;28;20118;-31
2021/12/03 06:20:42;;;;;;;7.90;4.50;;;15.00;76.30;;;;;;5210270;28;20048;-32
2021/12/03 06:23:13;;;;;;;6.30;3.37;;;15.10;76.00;;;;;;5209797;28;20045;-31
2021/12/03 06:25:46;;;;;;;5.50;3.20;;;15.20;75.70;;;;;;5191723;28;20483;-34
2021/12/03 06:28:17;;;;;;;;;;;15.20;75.70;;;;;;5209363;28;20472;-32
2021/12/03 06:30:48;;;;;;;9.90;7.20;;;15.30;75.70;;;;;;5209967;28;19921;-31
2021/12/03 06:33:19;;;;;;;8.23;5.90;;;15.30;75.40;;;;;;5208600;28;20045;-31
2021/12/03 06:35:50;;;;;;;8.33;5.17;;;15.30;75.70;;;;;;5208649;28;20132;-34
2021/12/03 06:38:21;;;;;;;8.10;4.40;;;15.30;75.60;;;;;;5208514;28;20061;-31
2021/12/03 06:40:52;;;;;;;7.60;4.63;;;15.30;75.60;;;;;;5209521;28;20609;-30
2021/12/03 06:43:23;;;;;;;8.73;5.50;;;15.20;75.70;;;;;;5209410;28;20136;-31
2021/12/03 06:45:54;;;;;;;5.47;4.30;;;15.20;75.80;;;;;;5209747;28;20049;-31
2021/12/03 06:48:25;;;;;;;8.33;6.40;;;15.20;75.60;;;;;;5209361;28;20041;-31
2021/12/03 06:50:57;;;;;;;7.20;5.10;;;15.20;76.10;;;;;;5209181;28;20048;-33
2021/12/03 06:53:39;;;;;;;8.33;6.27;;;15.20;76.10;;;;;;5209560;28;20120;-31
2021/12/03 06:56:19;;;;;;;9.27;7.13;;;15.10;76.00;;;;;;5208667;28;20419;-32
2021/12/03 06:58:50;;;;;;;10.33;7.40;;;15.10;76.10;;;;;;5208691;28;20141;-31
2021/12/03 07:01:22;;;;;;;7.07;5.60;;;15.00;76.80;;;;;;5209612;28;20518;-31
2021/12/03 07:03:54;;;;;;;13.65;7.78;;;15.00;76.10;;;;;;5207838;28;20491;-31
2021/12/03 07:06:25;;;;;;;10.07;5.80;;;14.90;76.20;;;;;;5209124;28;20046;-32
2021/12/03 07:08:56;;;;;;;8.07;5.67;;;14.90;76.40;;;;;;5209593;28;20062;-31
2021/12/03 07:11:27;;;;;;;10.63;7.50;;;14.90;76.20;;;;;;5207962;28;20128;-31
2021/12/03 07:13:58;;;;;;;8.67;6.07;;;14.90;76.30;;;;;;5209219;28;20046;-32
2021/12/03 07:16:29;;;;;;;11.00;7.20;;;14.90;76.30;;;;;;5208845;28;20052;-31
2021/12/03 07:19:00;;;;;;;14.17;8.77;;;14.80;76.30;;;;;;5207441;28;20064;-34
2021/12/03 07:21:31;;;;;;;16.87;10.53;;;14.80;76.50;;;;;;5190992;28;20479;-30
2021/12/03 07:24:02;;;;;;;15.83;10.73;;;14.70;76.90;;;;;;5208852;28;20041;-31
2021/12/03 07:26:34;;;;;;;11.90;7.73;;;14.60;76.90;;;;;;5209033;28;20490;-30
2021/12/03 07:29:07;;;;;;;16.45;10.15;;;14.70;76.90;;;;;;5207330;28;20102;-31
2021/12/03 07:31:38;;;;;;;11.93;7.47;;;14.60;77.20;;;;;;5207502;28;20099;-31
2021/12/03 07:34:11;;;;;;;11.77;7.67;;;14.60;77.50;;;;;;5208328;28;20064;-31
2021/12/03 07:36:42;;;;;;;15.73;9.48;;;14.70;77.50;;;;;;5208798;28;20049;-31
2021/12/03 07:39:13;;;;;;;13.73;9.50;;;14.80;77.00;;;;;;5208547;28;20038;-33
2021/12/03 07:41:44;;;;;;;16.33;10.67;;;14.90;76.80;;;;;;5208396;28;20069;-34
2021/12/03 07:44:15;;;;;;;15.57;8.27;;;15.00;76.80;;;;;;5208475;28;20092;-33
2021/12/03 07:46:46;;;;;;;13.27;8.77;;;15.00;76.10;;;;;;5208714;28;20048;-31
2021/12/03 07:49:18;;;;;;;15.83;10.07;;;15.10;76.20;;;;;;5208196;28;20045;-31
2021/12/03 07:51:49;;;;;;;23.10;13.77;;;15.10;76.50;;;;;;5207353;28;20094;-30
2021/12/03 07:54:20;;;;;;;23.30;16.73;;;15.10;76.00;;;;;;5207906;28;20049;-31
2021/12/03 07:56:51;;;;;;;10.90;6.73;;;15.10;76.10;;;;;;5206699;28;20045;-31
2021/12/03 07:59:22;;;;;;;11.43;7.37;;;15.10;75.50;;;;;;5207879;28;20129;-31
2021/12/03 08:01:54;;;;;;;9.87;5.83;;;15.10;75.60;;;;;;5208330;28;20129;-31
2021/12/03 08:04:25;;;;;;;13.87;9.53;;;15.00;75.20;;;;;;5207794;28;20053;-32
2021/12/03 08:06:56;;;;;;;11.10;7.37;;;15.10;75.30;;;;;;5206972;28;20466;-30
2021/12/03 08:09:28;;;;;;;11.37;6.50;;;15.10;75.50;;;;;;5206599;28;20067;-31
2021/12/03 08:11:59;;;;;;;11.07;7.13;;;15.10;75.10;;;;;;5208322;28;20546;-31
2021/12/03 08:14:30;;;;;;;11.50;6.53;;;15.10;75.40;;;;;;5207809;28;20121;-34
2021/12/03 08:17:02;;;;;;;9.80;5.90;;;15.00;75.10;;;;;;5207473;28;20049;-31
2021/12/03 08:19:33;;;;;;;11.20;6.97;;;15.00;75.20;;;;;;5206536;28;20041;-32
2021/12/03 08:22:04;;;;;;;11.50;7.53;;;15.10;75.20;;;;;;5208004;28;20483;-32
2021/12/03 08:24:35;;;;;;;11.70;7.40;;;15.00;75.00;;;;;;5207742;28;20536;-32
2021/12/03 08:27:06;;;;;;;15.40;11.97;;;15.10;75.30;;;;;;5207708;28;20124;-31
2021/12/03 08:29:38;;;;;;;9.37;5.47;;;15.10;75.50;;;;;;5207459;28;20049;-31
2021/12/03 08:32:10;;;;;;;15.87;10.30;;;15.00;75.20;;;;;;5207555;28;20072;-31
2021/12/03 08:34:41;;;;;;;10.20;6.97;;;15.00;75.30;;;;;;5206300;28;20065;-31
2021/12/03 08:37:12;;;;;;;12.40;8.83;;;15.00;75.50;;;;;;5206388;28;20045;-31
2021/12/03 08:39:43;;;;;;;18.70;14.63;;;14.90;75.20;;;;;;5206553;28;20052;-31
2021/12/03 08:42:21;;;;;;;13.77;9.20;;;14.90;75.60;;;;;;5205860;28;20124;-30
2021/12/03 08:44:52;;;;;;;18.60;11.53;;;14.80;75.60;;;;;;5207211;28;20406;-31
2021/12/03 08:47:23;;;;;;;15.73;11.07;;;14.80;75.80;;;;;;5207440;28;20163;-31
2021/12/03 08:49:55;;;;;;;18.40;12.57;;;14.80;76.30;;;;;;5207289;28;20464;-31
2021/12/03 08:55:18;;;;;;;12.40;7.70;;;14.70;75.70;;;;;;5206535;28;20140;-34
2021/12/03 08:57:49;;;;;;;14.73;10.40;;;14.70;75.80;;;;;;5203570;28;20542;-34
2021/12/03 09:00:21;;;;;;;12.87;8.77;;;14.70;75.70;;;;;;5204208;28;20045;-34
2021/12/03 09:02:53;;;;;;;16.60;10.70;;;14.70;75.90;;;;;;5190754;28;20045;-31
2021/12/03 09:05:29;;;;;;;13.47;7.97;;;14.60;76.60;;;;;;5211283;28;20479;-31
2021/12/03 09:08:07;;;;;;;15.23;9.03;;;14.60;76.00;;;;;;5211289;28;20042;-33
2021/12/03 09:10:39;;;;;;;13.02;7.85;;;14.60;76.20;;;;;;5193719;28;20065;-34
2021/12/03 09:13:11;;;;;;;10.87;8.20;;;14.50;76.20;;;;;;5209997;28;20380;-33
2021/12/03 09:15:58;;;;;;;15.68;11.23;;;14.50;76.40;;;;;;5211244;28;20053;-32
2021/12/03 09:18:35;;;;;;;13.77;7.57;;;14.50;77.00;;;;;;5211703;28;20373;-33
2021/12/03 09:21:12;;;;;;;15.77;10.00;;;14.40;77.10;;;;;;5211300;28;20060;-31
2021/12/03 09:26:22;;;;;;;10.73;6.57;;;14.50;77.00;;;;;;5211634;28;20095;-33
2021/12/03 09:29:06;;;;;;;13.38;7.32;;;14.50;77.20;;;;;;5209582;28;20068;-31
2021/12/03 09:31:42;;;;;;;12.00;7.77;;;14.40;76.80;;;;;;5209973;28;20129;-32
2021/12/03 09:34:23;;;;;;;9.23;6.43;;;14.40;77.10;;;;;;5209769;28;20052;-34
2021/12/03 09:36:56;;;;;;;11.23;6.97;;;14.30;77.70;;;;;;5211136;28;20116;-31
2021/12/03 09:39:27;;;;;;;10.70;6.22;;;14.30;77.10;;;;;;5210298;28;20398;-30
2021/12/03 09:41:58;;;;;;;16.67;10.87;;;14.30;78.00;;;;;;5192911;28;20053;-30
2021/12/03 09:44:39;;;;;;;26.83;16.90;;;14.30;77.50;;;;;;5209440;28;20126;-34
2021/12/03 09:47:11;;;;;;;16.77;12.17;;;14.20;77.80;;;;;;5210150;28;20243;-33
2021/12/03 09:49:42;;;;;;;13.70;9.30;;;14.30;77.90;;;;;;5193235;28;20449;-33
2021/12/03 09:54:52;;;;;;;11.43;7.73;;;14.20;77.70;;;;;;5209451;28;20049;-31
2021/12/03 09:57:32;;;;;;;12.17;7.77;;;14.20;78.80;;;;;;5192155;28;20115;-34
2021/12/03 10:03:09;;;;;;;12.10;7.47;;;14.20;78.60;;;;;;5189711;28;20490;-30
2021/12/03 10:11:49;;;;;;;11.53;8.70;;;14.20;78.80;;;;;;5205523;28;20725;-29
2021/12/03 10:20:23;;;;;;;11.70;7.17;;;14.20;79.10;;;;;;5184957;28;20077;-32
2021/12/03 11:39:11;;;;;;;11.07;6.53;;;14.60;79.30;;;;;;5201523;28;20053;-33
2021/12/03 13:06:47;;;;;;;;;;;12.10;83.40;;;;;;5130221;28;20093;-31
2021/12/03 13:14:54;;;;;;;15.23;10.23;;;10.90;87.30;;;;;;5184548;28;20260;-31
2021/12/03 14:40:21;;;;;;;48.50;21.77;;;10.00;90.10;;;;;;5010131;29;20058;-30
2021/12/03 14:45:47;;;;;;;40.90;21.10;;;9.90;90.40;;;;;;5046091;29;20064;-30
2021/12/03 14:51:26;;;;;;;38.20;20.43;;;9.90;90.50;;;;;;5086843;29;20056;-30
2021/12/03 14:56:46;;;;;;;20.57;17.23;;;9.90;90.50;;;;;;5093202;28;20494;-30
2021/12/03 14:59:21;;;;;;;21.47;14.97;;;9.90;90.60;;;;;;5146147;28;20051;-30
2021/12/03 15:02:04;;;;;;;20.33;14.73;;;9.90;90.60;;;;;;5145636;28;20046;-30
2021/12/03 15:09:45;;;;;;;25.77;18.90;;;9.90;90.50;;;;;;5146050;28;20054;-30
2021/12/03 15:23:13;;;;;;;49.97;31.77;;;11.50;88.50;;;;;;5206276;28;20112;-31
2021/12/03 15:29:10;;;;;;;27.37;16.90;;;12.10;86.90;;;;;;5207864;28;20061;-31
2021/12/03 15:39:35;;;;;;;25.77;16.57;;;12.90;84.90;;;;;;5152346;28;20059;-31
2021/12/03 16:04:22;;;;;;;25.20;16.97;;;13.60;83.20;;;;;;5163519;28;20050;-31
2021/12/03 16:07:20;;;;;;;28.83;18.07;;;13.60;83.10;;;;;;5164491;28;20043;-31
2021/12/03 16:26:04;;;;;;;26.70;16.77;;;13.90;82.30;;;;;;5204379;28;20041;-30
2021/12/03 16:51:31;;;;;;;20.00;13.57;;;14.80;79.90;;;;;;5141738;28;20643;-31
2021/12/03 16:54:08;;;;;;;20.77;14.00;;;14.90;79.30;;;;;;5080165;28;20063;-33
2021/12/03 16:56:47;;;;;;;15.50;11.67;;;14.90;79.10;;;;;;5126765;28;20531;-30
2021/12/03 16:59:19;;;;;;;16.17;11.47;;;14.90;79.60;;;;;;5141842;28;20567;-32
2021/12/03 17:19:46;;;;;;;19.77;13.33;;;14.90;78.30;;;;;;5121162;28;20043;-31
2021/12/03 17:56:17;;;;;;;26.30;17.50;;;14.70;77.10;;;;;;5165158;28;20066;-30
2021/12/03 17:58:56;;;;;;;16.87;10.83;;;14.70;76.90;;;;;;5159996;28;20086;-32
2021/12/03 18:15:22;;;;;;;28.83;14.30;;;14.60;76.30;;;;;;5124543;28;20055;-31
2021/12/03 18:57:09;;;;;;;13.47;8.33;;;14.50;75.60;;;;;;5208045;28;20050;-31
2021/12/03 18:59:59;;;;;;;11.47;8.07;;;14.40;76.30;;;;;;5209198;28;20563;-31
2021/12/03 19:02:32;;;;;;;11.03;6.80;;;14.40;75.10;;;;;;5208639;28;20045;-33
2021/12/03 19:05:13;;;;;;;13.40;7.83;;;14.40;74.60;;;;;;5208072;28;20041;-30
2021/12/03 19:08:09;;;;;;;13.07;7.83;;;14.50;75.20;;;;;;5208502;28;20045;-34
2021/12/03 19:10:52;;;;;;;11.90;7.95;;;14.40;74.50;;;;;;5208776;28;20042;-31
2021/12/03 19:13:27;;;;;;;18.33;12.83;;;14.40;74.90;;;;;;5207999;28;20391;-33
2021/12/03 19:16:01;;;;;;;16.73;11.97;;;14.40;75.40;;;;;;5207970;28;20480;-33
2021/12/03 19:18:32;;;;;;;14.63;9.17;;;14.40;75.00;;;;;;5209162;28;20049;-31
2021/12/03 19:21:08;;;;;;;13.70;7.43;;;14.40;74.90;;;;;;5208676;28;20116;-30
2021/12/03 19:23:39;;;;;;;12.50;8.37;;;14.40;74.60;;;;;;5208111;28;20495;-33
2021/12/03 19:26:11;;;;;;;12.70;8.43;;;14.40;74.80;;;;;;5207634;28;20060;-33
2021/12/03 19:28:42;;;;;;;9.33;6.13;;;14.40;74.80;;;;;;5208874;28;20048;-31
2021/12/03 19:31:13;;;;;;;9.37;7.20;;;14.40;74.80;;;;;;5208736;28;20072;-33
2021/12/03 19:33:44;;;;;;;11.93;6.80;;;14.40;74.80;;;;;;5207598;28;20124;-34
2021/12/03 19:36:22;;;;;;;13.33;8.53;;;14.40;74.70;;;;;;5208371;28;20124;-32
2021/12/03 19:38:55;;;;;;;11.40;7.60;;;14.40;74.80;;;;;;5208562;28;20116;-34
2021/12/03 19:44:01;;;;;;;14.07;8.17;;;14.40;74.90;;;;;;5199272;28;20440;-32
2021/12/03 19:46:37;;;;;;;14.07;8.83;;;14.40;74.40;;;;;;5207561;28;20141;-33
2021/12/03 19:49:14;;;;;;;14.07;8.20;;;14.40;74.50;;;;;;5205439;28;20115;-34
2021/12/03 19:51:50;;;;;;;14.10;8.23;;;14.30;75.20;;;;;;5206208;28;20777;-30
2021/12/03 19:54:21;;;;;;;14.03;9.07;;;14.30;74.90;;;;;;5205008;28;20041;-32
2021/12/03 19:56:53;;;;;;;11.97;7.93;;;14.30;74.60;;;;;;5204864;28;20048;-30
2021/12/03 19:59:23;;;;;;;13.97;8.80;;;14.30;74.60;;;;;;5221049;28;20547;-33
2021/12/03 20:01:56;;;;;;;15.53;9.47;;;14.40;74.70;;;;;;5206045;28;20080;-33
2021/12/03 20:04:28;;;;;;;12.32;8.52;;;14.40;74.90;;;;;;5191959;28;20061;-33
2021/12/03 20:07:01;;;;;;;13.47;9.07;;;14.40;74.70;;;;;;5205967;28;20108;-33
2021/12/03 20:09:46;;;;;;;11.40;8.85;;;14.40;74.70;;;;;;5205627;28;20049;-30
2021/12/03 20:12:21;;;;;;;13.20;10.03;;;14.40;74.60;;;;;;5204482;28;20050;-34
2021/12/03 20:14:52;;;;;;;13.57;9.47;;;14.40;74.70;;;;;;5203985;28;20051;-33
2021/12/03 20:17:31;;;;;;;16.27;10.30;;;14.40;74.70;;;;;;5192791;28;20492;-32
2021/12/03 20:20:06;;;;;;;15.73;10.50;;;14.40;74.70;;;;;;5199163;28;20061;-30
2021/12/03 20:28:01;;;;;;;12.60;9.00;;;14.40;74.80;;;;;;5204204;28;20158;-34
2021/12/03 20:30:46;;;;;;;14.50;10.10;;;14.40;74.80;;;;;;5190803;28;20450;-33
2021/12/03 20:38:40;;;;;;;15.20;9.57;;;14.40;74.90;;;;;;5204286;28;20069;-31
2021/12/03 20:41:14;;;;;;;12.13;8.47;;;14.50;74.80;;;;;;5205212;28;20053;-31
2021/12/03 20:44:02;;;;;;;12.83;7.97;;;14.50;74.40;;;;;;5203860;28;20552;-31
2021/12/03 21:08:47;;;;;;;13.63;8.90;;;14.50;73.40;;;;;;5141899;28;20050;-34
2021/12/03 21:11:23;;;;;;;15.03;8.77;;;14.50;73.50;;;;;;5125870;28;20043;-31
2021/12/03 21:14:02;;;;;;;15.00;9.70;;;14.50;73.30;;;;;;5141164;28;20054;-31
2021/12/03 21:22:01;;;;;;;15.63;9.53;;;14.50;73.30;;;;;;5141926;28;20054;-31
2021/12/03 21:24:34;;;;;;;12.90;8.70;;;14.50;73.20;;;;;;5141611;28;20057;-31
2021/12/03 21:27:14;;;;;;;15.37;10.37;;;14.50;73.10;;;;;;5141660;28;20218;-31
2021/12/03 21:30:10;;;;;;;19.33;11.17;;;14.50;73.00;;;;;;5177091;28;20057;-31
2021/12/03 21:33:01;;;;;;;16.27;9.70;;;14.50;72.80;;;;;;5202739;28;20446;-33
2021/12/03 21:41:26;;;;;;;17.50;9.27;;;14.40;72.10;;;;;;5204868;28;20171;-32
2021/12/03 21:44:00;;;;;;;15.63;8.37;;;14.40;72.10;;;;;;5204399;28;20492;-31
2021/12/03 21:46:34;;;;;;;15.93;9.77;;;14.40;72.00;;;;;;5203228;28;20049;-31
2021/12/03 21:49:06;;;;;;;15.60;9.13;;;14.40;71.90;;;;;;5203562;28;20456;-33
2021/12/03 21:51:39;;;;;;;15.37;9.87;;;14.40;71.80;;;;;;5203294;28;20037;-34